createdAt,value
2023-01-09T00:38:49.861Z,606.00
2023-01-09T00:39:49.837Z,605.00
2023-01-09T00:40:49.807Z,607.00
2023-01-09T00:41:49.767Z,606.00
2023-01-09T00:42:49.740Z,606.00
2023-01-09T00:43:49.706Z,603.00
2023-01-09T00:44:49.670Z,606.00
2023-01-09T00:45:49.701Z,606.00
2023-01-09T00:46:49.624Z,609.00
2023-01-09T00:47:49.581Z,608.00
2023-01-09T00:48:49.558Z,605.00
2023-01-09T00:49:49.524Z,610.00
2023-01-09T00:50:49.489Z,605.00
2023-01-09T00:51:49.468Z,607.00
2023-01-09T00:52:49.437Z,607.00
2023-01-09T00:53:49.403Z,610.00
2023-01-09T00:54:49.374Z,607.00
2023-01-09T00:55:49.344Z,609.00
2023-01-09T00:56:49.331Z,606.00
2023-01-09T00:57:49.288Z,612.00
2023-01-09T00:58:49.252Z,612.00
2023-01-09T00:59:49.229Z,612.00
2023-01-09T01:00:49.335Z,604.00
2023-01-09T01:01:49.378Z,605.00
2023-01-09T01:02:49.190Z,615.00
2023-01-09T01:03:49.116Z,615.00
2023-01-09T01:04:49.090Z,612.00
2023-01-09T01:05:49.054Z,610.00
2023-01-09T01:06:49.021Z,611.00
2023-01-09T01:07:49.006Z,612.00
2023-01-09T01:08:48.956Z,612.00
2023-01-09T01:09:48.940Z,611.00
2023-01-09T01:10:48.906Z,615.00
2023-01-09T01:11:48.875Z,613.00
2023-01-09T01:12:48.847Z,614.00
2023-01-09T01:13:48.811Z,608.00
2023-01-09T01:14:48.787Z,607.00
2023-01-09T01:15:48.759Z,611.00
2023-01-09T01:16:48.763Z,611.00
2023-01-09T01:17:48.696Z,610.00
2023-01-09T01:18:48.677Z,611.00
2023-01-09T01:19:48.637Z,616.00
2023-01-09T01:20:48.609Z,611.00
2023-01-09T01:21:48.576Z,611.00
2023-01-09T01:22:48.548Z,610.00
2023-01-09T01:23:48.518Z,611.00
2023-01-09T01:24:48.498Z,609.00
2023-01-09T01:25:48.458Z,612.00
2023-01-09T01:26:48.437Z,616.00
2023-01-09T01:27:48.394Z,608.00
2023-01-09T01:28:48.363Z,610.00
2023-01-09T01:29:48.329Z,609.00
2023-01-09T01:30:48.321Z,608.00
2023-01-09T01:31:48.273Z,610.00
2023-01-09T01:32:48.248Z,605.00
2023-01-09T01:33:48.214Z,605.00
2023-01-09T01:34:48.175Z,606.00
2023-01-09T01:35:48.145Z,608.00
2023-01-09T01:36:48.124Z,607.00
2023-01-09T01:37:48.095Z,613.00
2023-01-09T01:38:48.075Z,608.00
2023-01-09T01:39:48.045Z,602.00
2023-01-09T01:40:48.009Z,612.00
2023-01-09T01:41:47.967Z,605.00
2023-01-09T01:42:47.972Z,606.00
2023-01-09T01:43:47.906Z,608.00
2023-01-09T01:44:47.881Z,610.00
2023-01-09T01:45:47.875Z,605.00
2023-01-09T01:46:47.817Z,610.00
2023-01-09T01:47:47.781Z,604.00
2023-01-09T01:48:47.757Z,602.00
2023-01-09T01:49:47.719Z,607.00
2023-01-09T01:50:47.684Z,605.00
2023-01-09T01:51:47.648Z,607.00
2023-01-09T01:52:47.619Z,598.00
2023-01-09T01:53:47.592Z,600.00
2023-01-09T01:54:47.574Z,600.00
2023-01-09T01:55:47.526Z,602.00
2023-01-09T01:56:47.498Z,604.00
2023-01-09T01:57:47.466Z,605.00
2023-01-09T01:58:47.435Z,606.00
2023-01-09T01:59:47.390Z,601.00
2023-01-09T02:00:47.362Z,608.00
2023-01-09T02:01:47.428Z,604.00
2023-01-09T02:02:47.307Z,607.00
2023-01-09T02:03:47.253Z,605.00
2023-01-09T02:04:47.215Z,604.00
2023-01-09T02:05:47.179Z,592.00
2023-01-09T02:06:47.138Z,596.00
2023-01-09T02:07:47.097Z,601.00
2023-01-09T02:08:47.074Z,603.00
2023-01-09T02:09:47.032Z,606.00
2023-01-09T02:10:46.995Z,604.00
2023-01-09T02:11:46.970Z,606.00
2023-01-09T02:12:46.934Z,604.00
2023-01-09T02:13:46.885Z,605.00
2023-01-09T02:14:46.862Z,604.00
2023-01-09T02:15:46.899Z,604.00
2023-01-09T02:16:46.794Z,604.00
2023-01-09T02:17:46.758Z,602.00
2023-01-09T02:18:46.713Z,604.00
2023-01-09T02:19:46.683Z,608.00
2023-01-09T02:20:46.655Z,606.00
2023-01-09T03:15:44.919Z,602.00
2023-01-09T03:16:44.901Z,602.00
2023-01-09T03:17:44.901Z,593.00
2023-01-09T03:18:44.831Z,602.00
2023-01-09T03:19:44.796Z,596.00
2023-01-09T03:20:44.763Z,597.00
2023-01-09T03:21:44.740Z,597.00
2023-01-09T03:22:44.702Z,598.00
2023-01-09T03:23:44.668Z,597.00
2023-01-09T03:24:44.641Z,593.00
2023-01-09T03:25:44.608Z,599.00
2023-01-09T03:26:44.566Z,602.00
2023-01-09T03:27:44.527Z,597.00
2023-01-09T03:28:44.488Z,592.00
2023-01-09T03:29:44.444Z,596.00
2023-01-09T03:30:44.409Z,594.00
2023-01-09T03:31:44.430Z,593.00
2023-01-09T03:32:44.339Z,594.00
2023-01-09T03:33:44.308Z,595.00
2023-01-09T03:34:44.269Z,595.00
2023-01-09T03:35:44.249Z,590.00
2023-01-09T03:36:44.213Z,594.00
2023-01-09T03:37:44.182Z,596.00
2023-01-09T03:38:44.130Z,596.00
2023-01-09T03:39:44.097Z,594.00
2023-01-09T03:40:44.061Z,594.00
2023-01-09T03:41:44.027Z,598.00
2023-01-09T03:42:43.995Z,591.00
2023-01-09T03:43:43.961Z,594.00
2023-01-09T03:44:43.933Z,590.00
2023-01-09T03:45:43.945Z,599.00
2023-01-09T03:46:43.855Z,589.00
2023-01-09T03:47:43.837Z,584.00
2023-01-09T03:48:43.803Z,581.00
2023-01-09T03:49:43.752Z,590.00
2023-01-09T03:50:43.724Z,593.00
2023-01-09T03:51:43.684Z,601.00
2023-01-09T03:52:43.658Z,591.00
2023-01-09T03:53:43.621Z,592.00
2023-01-09T03:54:43.599Z,592.00
2023-01-09T03:55:43.568Z,587.00
2023-01-09T03:56:43.527Z,592.00
2023-01-09T03:57:43.488Z,590.00
2023-01-09T03:58:43.457Z,588.00
2023-01-09T03:59:43.430Z,596.00
2023-01-09T04:00:43.399Z,594.00
2023-01-09T04:01:43.451Z,589.00
2023-01-09T04:02:43.339Z,589.00
2023-01-09T04:03:43.358Z,597.00
2023-01-09T04:04:43.284Z,592.00
2023-01-09T04:05:43.238Z,596.00
2023-01-09T04:06:43.206Z,594.00
2023-01-09T04:07:43.162Z,597.00
2023-01-09T04:08:43.130Z,596.00
2023-01-09T04:09:43.104Z,592.00
2023-01-09T04:10:43.086Z,596.00
2023-01-09T04:11:43.023Z,587.00
2023-01-09T04:12:43.005Z,597.00
2023-01-09T04:13:42.954Z,595.00
2023-01-09T07:23:35.529Z,1126.00
2023-01-09T07:24:35.437Z,1115.00
2023-01-09T07:25:35.382Z,1161.00
2023-01-09T07:26:35.317Z,1167.00
2023-01-09T07:27:35.276Z,1132.00
2023-01-09T07:28:35.202Z,1129.00
2023-01-09T07:29:35.314Z,1138.00
2023-01-09T07:30:35.068Z,1153.00
2023-01-09T07:31:35.038Z,1174.00
2023-01-09T07:32:34.956Z,1178.00
2023-01-09T07:33:34.917Z,1194.00
2023-01-09T07:34:34.836Z,1211.00
2023-01-09T07:35:34.783Z,1201.00
2023-01-09T07:36:34.700Z,1217.00
2023-01-09T07:37:34.641Z,1221.00
2023-01-09T07:38:36.733Z,1247.00
2023-01-09T07:39:34.521Z,1271.00
2023-01-09T07:40:34.454Z,1232.00
2023-01-09T07:41:34.389Z,1252.00
2023-01-09T07:42:34.332Z,1271.00
2023-01-09T07:43:34.291Z,1277.00
2023-01-09T07:44:34.225Z,1284.00
2023-01-09T07:45:34.160Z,1178.00
2023-01-09T07:47:34.045Z,527.00
2023-01-09T07:48:34.006Z,478.00
2023-01-09T07:49:33.949Z,419.00
2023-01-09T07:50:33.911Z,400.00
2023-01-09T07:51:33.861Z,400.00
2023-01-09T07:52:33.823Z,400.00
2023-01-09T07:53:33.784Z,400.00
2023-01-09T07:54:33.751Z,400.00
2023-01-09T07:55:33.728Z,437.00
2023-01-09T07:56:33.710Z,400.00
2023-01-09T07:57:33.681Z,433.00
2023-01-09T07:58:33.648Z,400.00
2023-01-09T07:59:33.646Z,456.00
2023-01-09T08:00:33.662Z,553.00
2023-01-09T08:01:33.670Z,586.00
2023-01-09T08:02:33.706Z,616.00
2023-01-09T08:03:33.585Z,639.00
2023-01-09T08:04:33.545Z,639.00
2023-01-09T08:05:33.539Z,648.00
2023-01-09T08:06:33.486Z,744.00
2023-01-09T08:07:33.467Z,812.00
2023-01-09T08:08:33.435Z,825.00
2023-01-09T08:09:33.422Z,886.00
2023-01-09T08:10:33.401Z,914.00
2023-01-09T08:11:33.372Z,957.00
2023-01-09T08:12:33.323Z,1052.00
2023-01-09T08:13:33.311Z,1018.00
2023-01-09T08:14:33.242Z,1041.00
2023-01-09T08:15:33.247Z,1104.00
2023-01-09T08:16:33.171Z,1144.00
2023-01-09T08:17:33.127Z,1182.00
2023-01-09T08:18:33.119Z,1272.00
2023-01-09T08:19:33.040Z,1280.00
2023-01-09T08:20:32.993Z,1326.00
2023-01-09T08:21:32.943Z,1327.00
2023-01-09T11:56:25.005Z,1667.00
2023-01-09T12:27:23.857Z,1822.00
2023-01-09T12:28:23.829Z,1771.00
2023-01-09T12:29:23.811Z,1791.00
2023-01-09T12:30:23.742Z,1748.00
2023-01-09T12:31:23.735Z,1795.00
2023-01-09T12:32:23.676Z,1770.00
2023-01-09T12:33:23.637Z,1731.00
2023-01-09T12:34:23.613Z,1704.00
2023-01-09T12:35:23.571Z,1704.00
2023-01-09T12:36:23.545Z,1733.00
2023-01-09T12:37:23.490Z,1717.00
2023-01-09T12:38:23.458Z,1709.00
2023-01-09T12:39:23.432Z,1661.00
2023-01-09T12:40:23.404Z,1668.00
2023-01-09T12:41:23.365Z,1690.00
2023-01-09T12:42:23.338Z,1715.00
2023-01-09T12:43:23.302Z,1666.00
2023-01-09T12:44:34.652Z,1651.00
2023-01-09T12:46:23.207Z,1639.00
2023-01-09T12:47:23.161Z,1659.00
2023-01-09T12:48:23.125Z,1639.00
2023-01-09T12:49:23.103Z,1619.00
2023-01-09T12:50:23.060Z,1599.00
2023-01-09T12:51:23.024Z,1594.00
2023-01-09T12:52:22.997Z,1614.00
2023-01-09T12:53:22.967Z,1630.00
2023-01-09T12:54:22.942Z,1599.00
2023-01-09T14:24:20.070Z,1181.00
2023-01-09T14:35:19.680Z,1173.00
2023-01-09T15:37:17.595Z,1114.00
2023-01-09T15:38:17.556Z,1092.00
2023-01-09T15:39:17.529Z,1054.00
2023-01-09T15:40:17.504Z,1090.00
2023-01-09T15:41:17.479Z,1067.00
2023-01-09T15:42:17.470Z,1088.00
2023-01-09T15:43:17.436Z,1087.00
2023-01-09T15:44:17.405Z,1072.00
2023-01-09T15:45:17.375Z,1075.00
2023-01-09T15:46:17.341Z,1056.00
2023-01-09T15:47:17.311Z,1085.00
2023-01-09T15:48:17.283Z,1081.00
2023-01-09T15:49:17.245Z,1059.00
2023-01-09T15:50:17.220Z,1038.00
2023-01-09T15:51:17.188Z,1050.00
2023-01-09T15:52:17.155Z,1067.00
2023-01-09T15:53:17.125Z,1068.00
2023-01-09T15:54:17.094Z,1068.00
2023-01-09T15:55:17.059Z,1039.00
2023-01-09T15:56:17.055Z,1032.00
2023-01-09T15:57:17.005Z,1065.00
2023-01-09T15:58:16.976Z,1082.00
2023-01-09T15:59:16.951Z,1079.00
2023-01-09T16:00:16.896Z,1052.00
2023-01-09T16:01:16.921Z,1018.00
2023-01-09T16:02:16.855Z,1020.00
2023-01-09T16:03:16.820Z,1027.00
2023-01-09T16:04:16.765Z,1038.00
2023-01-09T16:05:16.756Z,1032.00
2023-01-09T16:06:16.720Z,1028.00
2023-01-09T16:07:16.687Z,1041.00
2023-01-09T16:08:16.642Z,1036.00
2023-01-09T16:09:16.701Z,1048.00
2023-01-09T16:10:16.571Z,1059.00
2023-01-09T16:11:16.540Z,1038.00
2023-01-09T16:12:16.506Z,1031.00
2023-01-09T16:13:16.475Z,1037.00
2023-01-09T16:14:16.440Z,1061.00
2023-01-09T16:15:16.410Z,1052.00
2023-01-09T16:16:16.393Z,1037.00
2023-01-09T16:17:16.361Z,1003.00
2023-01-09T16:18:16.341Z,1024.00
2023-01-09T16:19:16.284Z,1026.00
2023-01-09T16:20:16.267Z,1032.00
2023-01-09T16:21:16.211Z,1047.00
2023-01-09T16:22:16.174Z,1020.00
2023-01-09T16:23:16.149Z,1009.00
2023-01-09T16:24:16.104Z,1022.00
2023-01-09T16:25:16.074Z,1034.00
2023-01-09T16:26:16.028Z,1049.00
2023-01-09T16:27:15.997Z,1026.00
2023-01-09T16:28:15.965Z,1047.00
2023-01-09T16:29:15.927Z,1029.00
2023-01-09T16:30:15.891Z,1036.00
2023-01-09T16:31:15.849Z,1037.00
2023-01-09T16:32:15.812Z,1061.00
2023-01-09T16:33:15.781Z,1046.00
2023-01-09T16:34:15.740Z,1004.00
2023-01-09T16:35:15.708Z,1022.00
2023-01-09T16:36:15.665Z,1043.00
2023-01-09T16:37:15.653Z,1036.00
2023-01-09T16:38:15.600Z,1018.00
2023-01-09T16:39:15.569Z,1012.00
2023-01-09T16:40:15.525Z,1016.00
2023-01-09T16:41:15.491Z,1018.00
2023-01-09T16:42:15.480Z,1019.00
2023-01-09T16:43:15.441Z,1036.00
2023-01-09T16:44:15.405Z,1011.00
2023-01-09T16:45:15.373Z,989.00
2023-01-09T16:46:15.382Z,992.00
2023-01-09T16:47:15.297Z,993.00
2023-01-09T16:48:15.253Z,999.00
2023-01-09T16:49:15.223Z,1001.00
2023-01-09T16:50:15.198Z,993.00
2023-01-09T16:51:15.161Z,996.00
2023-01-09T16:52:15.914Z,1005.00
2023-01-09T16:53:15.080Z,1008.00
2023-01-09T16:54:15.078Z,1026.00
2023-01-09T16:55:15.015Z,1013.00
2023-01-09T16:56:14.996Z,996.00
2023-01-09T16:57:14.952Z,1004.00
2023-01-09T16:58:16.992Z,1015.00
2023-01-09T16:59:14.903Z,1044.00
2023-01-09T17:00:14.855Z,1022.00
2023-01-09T17:01:14.950Z,1005.00
2023-01-09T17:02:14.825Z,987.00
2023-01-09T17:03:14.768Z,1000.00
2023-01-09T17:04:14.749Z,1006.00
2023-01-09T17:05:14.711Z,1025.00
2023-01-09T17:06:14.675Z,1004.00
2023-01-09T17:07:14.647Z,972.00
2023-01-09T17:08:14.621Z,979.00
2023-01-09T17:09:14.601Z,1010.00
2023-01-09T17:10:14.559Z,1003.00
2023-01-09T17:11:14.527Z,990.00
2023-01-09T17:12:14.496Z,1003.00
2023-01-09T17:13:14.463Z,986.00
2023-01-09T17:14:14.434Z,1010.00
2023-01-09T17:15:14.398Z,998.00
2023-01-09T17:16:14.431Z,996.00
2023-01-09T17:17:14.362Z,1004.00
2023-01-09T17:18:14.306Z,984.00
2023-01-09T17:19:14.278Z,987.00
2023-01-09T17:20:14.241Z,982.00
2023-01-09T17:21:14.232Z,1009.00
2023-01-09T17:22:14.212Z,1017.00
2023-01-09T17:23:14.150Z,989.00
2023-01-09T17:24:14.185Z,961.00
2023-01-09T17:25:14.101Z,980.00
2023-01-09T17:26:14.065Z,982.00
2023-01-09T17:27:14.038Z,1004.00
2023-01-09T17:28:14.005Z,994.00
2023-01-09T17:29:13.970Z,983.00
2023-01-09T17:30:18.944Z,973.00
2023-01-09T17:31:14.986Z,974.00
2023-01-09T17:32:13.930Z,978.00
2023-01-09T17:33:13.856Z,982.00
2023-01-09T17:34:13.823Z,992.00
2023-01-09T17:35:13.787Z,988.00
2023-01-09T17:36:13.750Z,981.00
2023-01-09T17:37:13.754Z,989.00
2023-01-09T17:38:13.704Z,996.00
2023-01-09T17:39:13.651Z,975.00
2023-01-09T17:40:13.630Z,972.00
2023-01-09T17:41:13.587Z,980.00
2023-01-09T17:42:13.547Z,989.00
2023-01-09T17:43:13.513Z,990.00
2023-01-09T17:44:13.485Z,980.00
2023-01-09T17:45:13.462Z,967.00
2023-01-09T17:46:13.474Z,959.00
2023-01-09T17:47:13.391Z,984.00
2023-01-09T17:48:13.359Z,985.00
2023-01-09T17:49:13.334Z,975.00
2023-01-09T17:50:13.295Z,953.00
2023-01-09T17:51:13.269Z,944.00
2023-01-09T17:52:13.229Z,945.00
2023-01-09T17:53:13.204Z,959.00
2023-01-09T17:54:13.176Z,972.00
2023-01-09T17:55:13.151Z,969.00
2023-01-09T17:56:13.111Z,960.00
2023-01-09T17:57:13.081Z,929.00
2023-01-09T17:58:13.040Z,947.00
2023-01-09T17:59:13.018Z,933.00
2023-01-09T18:00:12.979Z,965.00
2023-01-09T18:01:12.982Z,951.00
2023-01-09T18:02:12.962Z,911.00
2023-01-09T18:03:12.885Z,935.00
2023-01-09T18:04:12.824Z,927.00
2023-01-09T18:05:12.800Z,938.00
2023-01-09T18:06:12.761Z,956.00
2023-01-09T18:07:12.720Z,925.00
2023-01-09T18:08:12.691Z,905.00
2023-01-09T18:09:12.647Z,933.00
2023-01-09T18:10:12.625Z,949.00
2023-01-09T18:11:12.585Z,941.00
2023-01-09T18:12:12.571Z,941.00
2023-01-09T18:13:12.530Z,918.00
2023-01-09T18:14:13.845Z,882.00
2023-01-09T18:15:12.461Z,925.00
2023-01-09T18:16:12.472Z,939.00
2023-01-09T18:17:12.404Z,949.00
2023-01-09T18:18:12.359Z,911.00
2023-01-09T18:19:12.318Z,901.00
2023-01-09T18:20:12.280Z,896.00
2023-01-09T18:21:12.247Z,922.00
2023-01-09T18:22:12.214Z,943.00
2023-01-09T18:23:12.177Z,934.00
2023-01-09T18:24:12.143Z,909.00
2023-01-09T18:25:12.155Z,888.00
2023-01-09T18:26:12.087Z,899.00
2023-01-09T18:27:12.025Z,915.00
2023-01-09T18:28:11.999Z,935.00
2023-01-09T18:29:11.963Z,883.00
2023-01-09T18:30:11.932Z,849.00
2023-01-09T18:31:11.945Z,863.00
2023-01-09T18:32:11.859Z,875.00
2023-01-09T18:33:11.832Z,903.00
2023-01-09T18:34:11.787Z,911.00
2023-01-09T18:35:11.753Z,885.00
2023-01-09T18:36:11.731Z,855.00
2023-01-09T18:37:11.765Z,874.00
2023-01-09T18:38:11.681Z,879.00
2023-01-09T18:39:11.634Z,881.00
2023-01-09T18:40:11.597Z,883.00
2023-01-09T18:41:11.566Z,834.00
2023-01-09T18:42:11.542Z,854.00
2023-01-09T18:43:11.556Z,886.00
2023-01-09T18:44:11.466Z,894.00
2023-01-09T18:45:11.447Z,898.00
2023-01-09T18:46:11.477Z,879.00
2023-01-09T18:47:11.360Z,848.00
2023-01-09T18:48:11.312Z,833.00
2023-01-09T18:49:11.307Z,867.00
2023-01-09T18:50:11.241Z,885.00
2023-01-09T18:51:11.211Z,887.00
2023-01-09T18:52:11.181Z,829.00
2023-01-09T18:53:11.145Z,835.00
2023-01-09T18:54:11.120Z,838.00
2023-01-09T18:55:11.091Z,883.00
2023-01-09T18:56:11.042Z,883.00
2023-01-09T18:57:11.007Z,855.00
2023-01-09T18:58:10.976Z,817.00
2023-01-09T18:59:10.966Z,832.00
2023-01-09T19:00:10.916Z,832.00
2023-01-09T19:01:10.913Z,863.00
2023-01-09T19:02:10.842Z,847.00
2023-01-09T19:03:11.810Z,815.00
2023-01-09T19:04:10.888Z,814.00
2023-01-09T19:05:10.741Z,839.00
2023-01-09T19:06:10.757Z,856.00
2023-01-09T19:07:10.677Z,877.00
2023-01-09T19:08:10.630Z,830.00
2023-01-09T19:09:10.593Z,844.00
2023-01-09T19:10:10.570Z,841.00
2023-01-09T19:11:10.535Z,855.00
2023-01-09T19:12:10.512Z,851.00
2023-01-09T19:13:10.455Z,837.00
2023-01-09T19:14:10.448Z,823.00
2023-01-09T19:15:10.379Z,801.00
2023-01-09T19:16:10.401Z,813.00
2023-01-09T19:17:10.319Z,857.00
2023-01-09T19:18:10.283Z,874.00
2023-01-09T19:19:10.252Z,847.00
2023-01-09T19:20:10.230Z,794.00
2023-01-09T19:21:10.182Z,835.00
2023-01-09T19:22:10.163Z,845.00
2023-01-09T19:23:10.145Z,856.00
2023-01-09T19:24:10.117Z,859.00
2023-01-09T19:25:10.060Z,834.00
2023-01-09T19:26:10.038Z,783.00
2023-01-09T19:27:10.004Z,824.00
2023-01-09T19:28:09.976Z,850.00
2023-01-09T19:29:09.943Z,851.00
2023-01-09T19:30:09.916Z,850.00
2023-01-09T19:31:09.944Z,807.00
2023-01-09T19:32:09.851Z,825.00
2023-01-09T19:33:09.810Z,843.00
2023-01-09T19:34:09.766Z,853.00
2023-01-09T19:35:09.744Z,857.00
2023-01-09T19:36:09.708Z,826.00
2023-01-09T19:37:09.772Z,766.00
2023-01-09T19:38:09.634Z,814.00
2023-01-09T19:39:09.597Z,836.00
2023-01-09T19:40:09.553Z,843.00
2023-01-09T19:41:09.500Z,835.00
2023-01-09T19:42:09.470Z,803.00
2023-01-09T19:43:09.443Z,815.00
2023-01-09T19:44:09.403Z,828.00
2023-01-09T19:45:09.356Z,841.00
2023-01-09T19:46:09.416Z,860.00
2023-01-09T19:47:09.277Z,833.00
2023-01-09T19:48:09.242Z,793.00
2023-01-09T19:49:09.208Z,804.00
2023-01-09T19:50:09.173Z,808.00
2023-01-09T19:51:09.137Z,838.00
2023-01-09T19:52:09.105Z,829.00
2023-01-09T19:53:09.061Z,798.00
2023-01-09T19:54:09.028Z,794.00
2023-01-09T19:55:08.987Z,803.00
2023-01-09T19:56:08.944Z,837.00
2023-01-09T19:57:08.909Z,844.00
2023-01-09T19:58:08.880Z,828.00
2023-01-09T19:59:08.850Z,785.00
2023-01-09T20:00:08.812Z,785.00
2023-01-09T20:01:08.799Z,787.00
2023-01-09T20:02:08.743Z,794.00
2023-01-09T20:03:08.697Z,811.00
2023-01-09T20:04:08.667Z,813.00
2023-01-09T20:05:08.627Z,785.00
2023-01-09T20:06:08.614Z,828.00
2023-01-09T20:07:08.562Z,821.00
2023-01-09T20:08:08.535Z,836.00
2023-01-09T20:09:08.494Z,798.00
2023-01-09T20:10:08.477Z,790.00
2023-01-09T20:11:08.441Z,795.00
2023-01-09T20:12:08.426Z,795.00
2023-01-09T20:13:08.389Z,802.00
2023-01-09T20:14:08.367Z,841.00
2023-01-09T20:15:08.321Z,786.00
2023-01-09T20:16:08.338Z,762.00
2023-01-09T20:17:08.245Z,783.00
2023-01-09T20:18:08.220Z,785.00
2023-01-09T20:19:08.188Z,833.00
2023-01-09T20:20:08.150Z,803.00
2023-01-09T20:21:08.110Z,782.00
2023-01-09T20:22:08.096Z,765.00
2023-01-09T20:23:08.047Z,761.00
2023-01-09T20:24:08.008Z,819.00
2023-01-09T20:25:07.981Z,815.00
2023-01-09T20:26:07.942Z,800.00
2023-01-09T20:27:07.916Z,748.00
2023-01-09T20:28:07.882Z,779.00
2023-01-09T20:29:07.836Z,796.00
2023-01-09T20:30:07.803Z,819.00
2023-01-09T20:31:07.765Z,810.00
2023-01-09T20:32:07.780Z,799.00
2023-01-09T20:33:07.711Z,720.00
2023-01-09T20:34:07.678Z,752.00
2023-01-09T20:35:07.637Z,761.00
2023-01-09T20:36:07.607Z,818.00
2023-01-09T20:37:07.615Z,776.00
2023-01-09T20:38:07.547Z,748.00
2023-01-09T20:39:07.499Z,735.00
2023-01-09T20:40:07.463Z,778.00
2023-01-09T20:41:07.419Z,782.00
2023-01-09T20:42:07.389Z,791.00
2023-01-09T20:43:07.350Z,743.00
2023-01-09T20:44:07.363Z,721.00
2023-01-09T20:45:07.284Z,739.00
2023-01-09T20:46:07.272Z,766.00
2023-01-09T20:47:07.205Z,794.00
2023-01-09T20:48:07.186Z,779.00
2023-01-09T20:49:07.143Z,726.00
2023-01-09T20:50:07.102Z,717.00
2023-01-09T20:51:07.077Z,756.00
2023-01-09T20:52:07.036Z,757.00
2023-01-09T20:53:07.953Z,765.00
2023-01-09T20:54:06.971Z,767.00
2023-01-09T20:55:06.947Z,734.00
2023-01-09T20:56:06.919Z,727.00
2023-01-09T20:57:06.879Z,735.00
2023-01-09T20:58:06.855Z,762.00
2023-01-09T20:59:06.820Z,792.00
2023-01-09T21:00:06.771Z,746.00
2023-01-09T21:01:06.774Z,722.00
2023-01-09T21:02:06.713Z,744.00
2023-01-09T21:03:06.678Z,766.00
2023-01-09T21:04:06.675Z,798.00
2023-01-09T21:05:06.622Z,774.00
2023-01-09T21:06:06.672Z,711.00
2023-01-09T21:07:06.545Z,706.00
2023-01-09T21:08:06.518Z,750.00
2023-01-09T21:09:06.523Z,777.00
2023-01-09T21:10:06.462Z,776.00
2023-01-09T21:11:06.442Z,722.00
2023-01-09T21:12:06.410Z,694.00
2023-01-09T21:13:06.377Z,696.00
2023-01-09T21:14:06.349Z,705.00
2023-01-09T21:15:06.332Z,724.00
2023-01-09T21:16:08.900Z,729.00
2023-01-09T21:17:06.253Z,733.00
2023-01-09T21:18:06.218Z,724.00
2023-01-09T21:19:06.180Z,755.00
2023-01-09T21:20:06.155Z,760.00
2023-01-09T21:21:06.107Z,791.00
2023-01-09T21:22:06.079Z,733.00
2023-01-09T21:23:06.033Z,722.00
2023-01-09T21:24:06.026Z,749.00
2023-01-09T21:25:05.974Z,769.00
2023-01-09T21:26:05.949Z,767.00
2023-01-09T21:27:05.916Z,761.00
2023-01-09T21:28:05.883Z,720.00
2023-01-09T21:29:05.847Z,693.00
2023-01-09T21:30:05.810Z,748.00
2023-01-09T21:31:05.770Z,712.00
2023-01-09T21:32:05.744Z,777.00
2023-01-09T21:33:05.723Z,735.00
2023-01-09T21:34:05.730Z,668.00
2023-01-09T21:35:05.641Z,719.00
2023-01-09T21:36:05.610Z,742.00
2023-01-09T21:37:05.629Z,765.00
2023-01-09T21:38:05.553Z,762.00
2023-01-09T21:39:08.161Z,718.00
2023-01-09T21:40:05.478Z,715.00
2023-01-09T21:41:05.551Z,720.00
2023-01-09T21:42:05.401Z,738.00
2023-01-09T21:43:05.381Z,767.00
2023-01-09T21:44:05.338Z,751.00
2023-01-09T21:45:05.310Z,699.00
2023-01-09T21:46:05.315Z,715.00
2023-01-09T21:47:05.234Z,740.00
2023-01-09T21:48:05.212Z,756.00
2023-01-09T21:49:05.175Z,777.00
2023-01-09T21:50:05.138Z,715.00
2023-01-09T21:51:05.108Z,673.00
2023-01-09T21:52:05.070Z,698.00
2023-01-09T21:53:05.043Z,746.00
2023-01-09T21:54:05.598Z,755.00
2023-01-09T21:55:04.979Z,754.00
2023-01-09T21:56:04.959Z,688.00
2023-01-09T21:57:04.921Z,714.00
2023-01-09T21:58:04.891Z,726.00
2023-01-09T21:59:04.858Z,757.00
2023-01-09T22:00:04.832Z,779.00
2023-01-09T22:01:04.902Z,724.00
2023-01-09T22:02:04.758Z,706.00
2023-01-09T22:03:04.729Z,689.00
2023-01-09T22:04:04.749Z,751.00
2023-01-09T22:05:04.677Z,753.00
2023-01-09T22:06:04.641Z,758.00
2023-01-09T22:07:04.614Z,706.00
2023-01-09T22:08:04.588Z,661.00
2023-01-09T22:09:04.566Z,722.00
2023-01-09T22:10:04.522Z,739.00
2023-01-09T22:11:04.493Z,786.00
2023-01-09T22:12:04.460Z,733.00
2023-01-09T22:13:04.418Z,702.00
2023-01-09T22:14:04.382Z,703.00
2023-01-09T22:15:04.348Z,741.00
2023-01-09T22:16:04.353Z,762.00
2023-01-09T22:17:04.285Z,766.00
2023-01-09T22:18:04.250Z,714.00
2023-01-09T22:19:04.223Z,689.00
2023-01-09T22:20:04.199Z,717.00
2023-01-09T22:21:04.156Z,744.00
2023-01-09T22:22:04.133Z,747.00
2023-01-09T22:23:04.099Z,729.00
2023-01-09T22:24:04.064Z,695.00
2023-01-09T22:25:04.041Z,670.00
2023-01-09T22:26:04.006Z,735.00
2023-01-09T22:27:03.987Z,745.00
2023-01-09T22:28:03.938Z,769.00
2023-01-09T22:29:03.916Z,721.00
2023-01-09T22:30:03.886Z,662.00
2023-01-09T22:31:03.853Z,709.00
2023-01-09T22:32:03.915Z,731.00
2023-01-09T22:33:03.801Z,755.00
2023-01-09T22:34:03.775Z,759.00
2023-01-09T22:35:03.762Z,713.00
2023-01-09T22:36:03.718Z,700.00
2023-01-09T22:37:03.762Z,715.00
2023-01-09T22:38:03.661Z,727.00
2023-01-09T22:39:03.630Z,760.00
2023-01-09T22:40:03.634Z,726.00
2023-01-09T22:41:03.584Z,705.00
2023-01-09T22:42:03.547Z,704.00
2023-01-09T22:43:03.511Z,731.00
2023-01-09T22:44:03.489Z,762.00
2023-01-09T22:45:03.461Z,740.00
2023-01-09T22:46:03.543Z,715.00
2023-01-09T22:47:03.403Z,661.00
2023-01-09T22:48:03.372Z,684.00
2023-01-09T22:49:03.352Z,732.00
2023-01-09T22:50:03.320Z,753.00
2023-01-09T22:51:03.293Z,742.00
2023-01-09T22:52:03.269Z,706.00
2023-01-09T22:53:03.245Z,702.00
2023-01-09T22:54:03.219Z,693.00
2023-01-09T22:55:03.194Z,715.00
2023-01-09T22:56:03.169Z,753.00
2023-01-09T22:57:03.133Z,690.00
2023-01-09T22:58:03.098Z,658.00
2023-01-09T22:59:03.091Z,711.00
2023-01-09T23:00:03.044Z,709.00
2023-01-09T23:01:03.009Z,724.00
2023-01-09T23:02:03.109Z,730.00
2023-01-09T23:03:03.040Z,695.00
2023-01-09T23:04:02.924Z,717.00
2023-01-09T23:05:02.911Z,714.00
2023-01-09T23:06:02.881Z,725.00
2023-01-09T23:07:02.851Z,740.00
2023-01-09T23:08:02.818Z,740.00
2023-01-09T23:09:02.795Z,679.00
2023-01-09T23:10:02.791Z,669.00
2023-01-09T23:11:02.744Z,680.00
2023-01-09T23:12:02.711Z,725.00
2023-01-09T23:13:02.679Z,743.00
2023-01-09T23:14:02.633Z,687.00
2023-01-09T23:15:02.608Z,660.00
2023-01-09T23:16:02.588Z,703.00
2023-01-09T23:17:02.574Z,713.00
2023-01-09T23:18:02.523Z,742.00
2023-01-09T23:19:02.496Z,704.00
2023-01-09T23:20:02.449Z,672.00
2023-01-09T23:21:02.420Z,656.00
2023-01-09T23:22:02.408Z,687.00
2023-01-09T23:23:02.360Z,705.00
2023-01-09T23:24:02.360Z,739.00
2023-01-09T23:25:02.303Z,682.00
2023-01-09T23:26:02.289Z,652.00
2023-01-09T23:27:02.241Z,655.00
2023-01-09T23:28:02.194Z,691.00
2023-01-09T23:29:02.150Z,716.00
2023-01-09T23:30:02.116Z,733.00
2023-01-09T23:31:02.095Z,695.00
2023-01-09T23:32:02.119Z,678.00
2023-01-09T23:33:02.036Z,682.00
2023-01-09T23:34:02.009Z,679.00
2023-01-09T23:35:01.959Z,729.00
2023-01-09T23:36:01.916Z,674.00
2023-01-09T23:37:01.921Z,654.00
2023-01-09T23:38:01.849Z,651.00
2023-01-09T23:39:01.815Z,652.00
2023-01-09T23:40:01.795Z,669.00
2023-01-09T23:41:01.750Z,690.00
2023-01-09T23:42:01.740Z,656.00
2023-01-09T23:43:01.688Z,648.00
2023-01-09T23:44:01.647Z,659.00
2023-01-09T23:45:01.620Z,684.00
2023-01-09T23:46:01.641Z,716.00
2023-01-09T23:47:01.558Z,693.00
2023-01-09T23:48:01.519Z,648.00
2023-01-09T23:49:01.479Z,646.00
2023-01-09T23:50:01.461Z,659.00